Terminal Aerodrome Forecast
Issued by NWS Albuquerque, NM

Home | Current Version | Previous Version | Text Only | Print | Product List | Glossary On
Versions: 1 2 3 4 5 6 7 8 9 10 11 12 13 14 15 16 17 18 19 20 21 22 23
000
FTUS45 KABQ 010500
TAFABQ
TAF
KABQ 010531Z 0106/0206 34006KT P6SM FEW040 BKN070
     FM010900 VRB04KT P6SM VCFG SCT005
      TEMPO 0111/0114 1SM BR OVC005
     FM011900 19006KT P6SM SCT030
     FM012300 09012G18KT P6SM SCT050=

USA.gov is the U.S. government's official web portal to all federal, state and local government web resources and services.